sensor_id;sensor_type;location;lat;lon;timestamp;P1;durP1;ratioP1;P2;durP2;ratioP2
61104;SDS011;46987;32.638;-115.438;2023-07-13T00:00:47;8.45;;;1.98;;
61104;SDS011;46987;32.638;-115.438;2023-07-13T00:03:16;8.90;;;2.10;;
61104;SDS011;46987;32.638;-115.438;2023-07-13T00:05:43;5.75;;;2.30;;
61104;SDS011;46987;32.638;-115.438;2023-07-13T00:08:09;11.65;;;2.58;;
61104;SDS011;46987;32.638;-115.438;2023-07-13T00:10:40;7.95;;;2.25;;
61104;SDS011;46987;32.638;-115.438;2023-07-13T00:13:08;6.90;;;2.17;;
61104;SDS011;46987;32.638;-115.438;2023-07-13T00:15:35;10.70;;;1.92;;
61104;SDS011;46987;32.638;-115.438;2023-07-13T00:18:01;7.60;;;2.30;;
61104;SDS011;46987;32.638;-115.438;2023-07-13T00:20:30;8.48;;;2.88;;
61104;SDS011;46987;32.638;-115.438;2023-07-13T00:22:56;8.30;;;2.75;;
61104;SDS011;46987;32.638;-115.438;2023-07-13T00:25:23;6.15;;;2.47;;
61104;SDS011;46987;32.638;-115.438;2023-07-13T00:27:56;5.97;;;2.65;;
61104;SDS011;46987;32.638;-115.438;2023-07-13T00:30:23;9.45;;;3.40;;
61104;SDS011;46987;32.638;-115.438;2023-07-13T00:32:50;8.90;;;3.20;;
61104;SDS011;46987;32.638;-115.438;2023-07-13T00:35:17;8.27;;;3.35;;
61104;SDS011;46987;32.638;-115.438;2023-07-13T00:37:45;9.40;;;3.83;;
61104;SDS011;46987;32.638;-115.438;2023-07-13T00:40:12;12.90;;;3.83;;
61104;SDS011;46987;32.638;-115.438;2023-07-13T00:42:39;9.35;;;3.40;;
61104;SDS011;46987;32.638;-115.438;2023-07-13T00:46:02;8.52;;;3.38;;
61104;SDS011;46987;32.638;-115.438;2023-07-13T00:47:54;8.27;;;3.40;;
61104;SDS011;46987;32.638;-115.438;2023-07-13T00:50:21;6.75;;;3.53;;
61104;SDS011;46987;32.638;-115.438;2023-07-13T00:52:50;5.70;;;2.83;;
61104;SDS011;46987;32.638;-115.438;2023-07-13T00:55:19;6.83;;;2.70;;
61104;SDS011;46987;32.638;-115.438;2023-07-13T00:57:48;6.00;;;2.13;;
61104;SDS011;46987;32.638;-115.438;2023-07-13T01:00:15;6.28;;;2.50;;
61104;SDS011;46987;32.638;-115.438;2023-07-13T01:02:43;7.00;;;2.30;;
61104;SDS011;46987;32.638;-115.438;2023-07-13T01:05:10;6.80;;;3.03;;
61104;SDS011;46987;32.638;-115.438;2023-07-13T01:07:38;8.70;;;3.35;;
61104;SDS011;46987;32.638;-115.438;2023-07-13T01:10:08;10.23;;;3.53;;
61104;SDS011;46987;32.638;-115.438;2023-07-13T01:12:35;8.25;;;3.72;;
61104;SDS011;46987;32.638;-115.438;2023-07-13T01:15:02;7.30;;;3.85;;
61104;SDS011;46987;32.638;-115.438;2023-07-13T01:17:29;8.73;;;6.20;;
61104;SDS011;46987;32.638;-115.438;2023-07-13T01:19:55;9.10;;;7.90;;
61104;SDS011;46987;32.638;-115.438;2023-07-13T01:22:24;12.45;;;8.55;;
61104;SDS011;46987;32.638;-115.438;2023-07-13T01:24:53;16.60;;;8.50;;
61104;SDS011;46987;32.638;-115.438;2023-07-13T01:27:20;13.60;;;7.22;;
61104;SDS011;46987;32.638;-115.438;2023-07-13T01:29:47;12.93;;;9.05;;
61104;SDS011;46987;32.638;-115.438;2023-07-13T01:32:15;11.40;;;8.93;;
61104;SDS011;46987;32.638;-115.438;2023-07-13T01:34:42;14.43;;;9.35;;
61104;SDS011;46987;32.638;-115.438;2023-07-13T01:37:10;12.40;;;7.28;;
61104;SDS011;46987;32.638;-115.438;2023-07-13T01:39:38;11.18;;;6.43;;
61104;SDS011;46987;32.638;-115.438;2023-07-13T01:42:05;10.18;;;5.60;;
61104;SDS011;46987;32.638;-115.438;2023-07-13T01:44:32;15.68;;;5.35;;
61104;SDS011;46987;32.638;-115.438;2023-07-13T01:46:59;9.98;;;4.88;;
61104;SDS011;46987;32.638;-115.438;2023-07-13T01:49:25;13.57;;;4.53;;
61104;SDS011;46987;32.638;-115.438;2023-07-13T01:51:52;9.15;;;4.95;;
61104;SDS011;46987;32.638;-115.438;2023-07-13T01:54:19;10.13;;;4.55;;
61104;SDS011;46987;32.638;-115.438;2023-07-13T01:56:47;9.82;;;4.38;;
61104;SDS011;46987;32.638;-115.438;2023-07-13T01:59:13;9.00;;;3.90;;
61104;SDS011;46987;32.638;-115.438;2023-07-13T02:01:40;10.70;;;3.45;;
61104;SDS011;46987;32.638;-115.438;2023-07-13T02:04:07;17.80;;;4.15;;
61104;SDS011;46987;32.638;-115.438;2023-07-13T02:06:34;12.38;;;3.92;;
61104;SDS011;46987;32.638;-115.438;2023-07-13T02:09:00;16.45;;;3.75;;
61104;SDS011;46987;32.638;-115.438;2023-07-13T02:11:27;14.85;;;4.13;;
61104;SDS011;46987;32.638;-115.438;2023-07-13T02:14:00;7.53;;;3.25;;
61104;SDS011;46987;32.638;-115.438;2023-07-13T02:16:30;9.60;;;3.08;;
61104;SDS011;46987;32.638;-115.438;2023-07-13T02:18:56;11.85;;;3.03;;
61104;SDS011;46987;32.638;-115.438;2023-07-13T02:21:23;7.45;;;3.03;;
61104;SDS011;46987;32.638;-115.438;2023-07-13T02:23:51;7.80;;;2.60;;
61104;SDS011;46987;32.638;-115.438;2023-07-13T02:26:18;8.15;;;2.80;;
61104;SDS011;46987;32.638;-115.438;2023-07-13T02:28:45;8.48;;;2.58;;
61104;SDS011;46987;32.638;-115.438;2023-07-13T02:31:14;6.85;;;2.70;;
61104;SDS011;46987;32.638;-115.438;2023-07-13T02:33:41;10.40;;;2.50;;
61104;SDS011;46987;32.638;-115.438;2023-07-13T02:36:08;9.15;;;2.35;;
61104;SDS011;46987;32.638;-115.438;2023-07-13T02:38:35;6.45;;;2.20;;
61104;SDS011;46987;32.638;-115.438;2023-07-13T02:41:02;5.32;;;2.25;;
61104;SDS011;46987;32.638;-115.438;2023-07-13T02:43:29;7.30;;;2.15;;
61104;SDS011;46987;32.638;-115.438;2023-07-13T02:45:56;6.07;;;2.35;;
61104;SDS011;46987;32.638;-115.438;2023-07-13T02:48:28;9.55;;;2.30;;
61104;SDS011;46987;32.638;-115.438;2023-07-13T02:50:55;9.75;;;2.80;;
61104;SDS011;46987;32.638;-115.438;2023-07-13T02:53:22;9.25;;;2.38;;
61104;SDS011;46987;32.638;-115.438;2023-07-13T02:55:48;7.75;;;2.15;;
61104;SDS011;46987;32.638;-115.438;2023-07-13T02:58:15;8.82;;;2.30;;
61104;SDS011;46987;32.638;-115.438;2023-07-13T03:00:46;10.88;;;2.00;;
61104;SDS011;46987;32.638;-115.438;2023-07-13T03:03:13;8.07;;;3.03;;
61104;SDS011;46987;32.638;-115.438;2023-07-13T03:05:43;9.07;;;2.25;;
61104;SDS011;46987;32.638;-115.438;2023-07-13T03:08:12;5.55;;;2.35;;
61104;SDS011;46987;32.638;-115.438;2023-07-13T03:10:41;10.02;;;2.53;;
61104;SDS011;46987;32.638;-115.438;2023-07-13T03:13:10;11.38;;;2.25;;
61104;SDS011;46987;32.638;-115.438;2023-07-13T03:15:37;9.52;;;2.10;;
61104;SDS011;46987;32.638;-115.438;2023-07-13T03:18:04;7.68;;;2.53;;
61104;SDS011;46987;32.638;-115.438;2023-07-13T03:20:32;6.15;;;2.10;;
61104;SDS011;46987;32.638;-115.438;2023-07-13T03:23:01;10.57;;;2.45;;
61104;SDS011;46987;32.638;-115.438;2023-07-13T03:25:29;7.13;;;2.58;;
61104;SDS011;46987;32.638;-115.438;2023-07-13T03:27:56;7.07;;;2.00;;
61104;SDS011;46987;32.638;-115.438;2023-07-13T03:30:23;9.02;;;2.30;;
61104;SDS011;46987;32.638;-115.438;2023-07-13T03:32:50;7.28;;;2.33;;
61104;SDS011;46987;32.638;-115.438;2023-07-13T03:35:17;5.97;;;2.53;;
61104;SDS011;46987;32.638;-115.438;2023-07-13T03:37:44;7.45;;;2.38;;
61104;SDS011;46987;32.638;-115.438;2023-07-13T03:40:18;11.77;;;2.72;;
61104;SDS011;46987;32.638;-115.438;2023-07-13T03:42:45;6.35;;;2.22;;
61104;SDS011;46987;32.638;-115.438;2023-07-13T03:45:15;8.20;;;2.35;;
61104;SDS011;46987;32.638;-115.438;2023-07-13T03:47:42;6.80;;;2.05;;
61104;SDS011;46987;32.638;-115.438;2023-07-13T03:50:08;6.90;;;2.45;;
61104;SDS011;46987;32.638;-115.438;2023-07-13T03:52:35;6.95;;;2.47;;
61104;SDS011;46987;32.638;-115.438;2023-07-13T03:55:02;6.53;;;2.30;;
61104;SDS011;46987;32.638;-115.438;2023-07-13T03:57:37;7.60;;;2.22;;
61104;SDS011;46987;32.638;-115.438;2023-07-13T04:00:05;11.23;;;2.65;;
61104;SDS011;46987;32.638;-115.438;2023-07-13T04:02:48;6.55;;;2.08;;
61104;SDS011;46987;32.638;-115.438;2023-07-13T04:05:18;7.53;;;2.40;;
61104;SDS011;46987;32.638;-115.438;2023-07-13T04:07:46;7.72;;;2.30;;
61104;SDS011;46987;32.638;-115.438;2023-07-13T04:10:21;8.57;;;2.30;;
61104;SDS011;46987;32.638;-115.438;2023-07-13T04:12:53;9.30;;;2.50;;
61104;SDS011;46987;32.638;-115.438;2023-07-13T04:15:20;6.35;;;2.47;;
61104;SDS011;46987;32.638;-115.438;2023-07-13T04:17:47;9.80;;;2.50;;
61104;SDS011;46987;32.638;-115.438;2023-07-13T04:20:15;7.72;;;2.60;;
61104;SDS011;46987;32.638;-115.438;2023-07-13T04:22:42;8.20;;;2.40;;
61104;SDS011;46987;32.638;-115.438;2023-07-13T04:25:09;7.63;;;2.80;;
61104;SDS011;46987;32.638;-115.438;2023-07-13T04:30:26;8.25;;;2.90;;
61104;SDS011;46987;32.638;-115.438;2023-07-13T04:32:53;10.63;;;2.88;;
61104;SDS011;46987;32.638;-115.438;2023-07-13T04:35:20;8.48;;;2.53;;
61104;SDS011;46987;32.638;-115.438;2023-07-13T04:37:47;9.32;;;2.67;;
61104;SDS011;46987;32.638;-115.438;2023-07-13T04:40:14;7.63;;;2.60;;
61104;SDS011;46987;32.638;-115.438;2023-07-13T04:42:41;8.25;;;2.83;;
61104;SDS011;46987;32.638;-115.438;2023-07-13T04:45:07;5.07;;;2.65;;
61104;SDS011;46987;32.638;-115.438;2023-07-13T04:47:36;5.18;;;2.35;;
61104;SDS011;46987;32.638;-115.438;2023-07-13T04:50:02;8.38;;;2.67;;
61104;SDS011;46987;32.638;-115.438;2023-07-13T04:52:30;6.70;;;2.80;;
61104;SDS011;46987;32.638;-115.438;2023-07-13T04:54:56;7.47;;;2.55;;
61104;SDS011;46987;32.638;-115.438;2023-07-13T04:57:23;7.13;;;2.30;;
61104;SDS011;46987;32.638;-115.438;2023-07-13T04:59:49;6.10;;;2.58;;
61104;SDS011;46987;32.638;-115.438;2023-07-13T05:02:16;6.43;;;2.45;;
61104;SDS011;46987;32.638;-115.438;2023-07-13T05:04:48;5.80;;;2.70;;
61104;SDS011;46987;32.638;-115.438;2023-07-13T05:07:14;8.18;;;2.40;;
61104;SDS011;46987;32.638;-115.438;2023-07-13T05:09:41;10.45;;;2.63;;
61104;SDS011;46987;32.638;-115.438;2023-07-13T05:12:08;7.38;;;2.15;;
61104;SDS011;46987;32.638;-115.438;2023-07-13T05:14:35;10.10;;;2.67;;
61104;SDS011;46987;32.638;-115.438;2023-07-13T05:17:02;7.88;;;2.40;;
61104;SDS011;46987;32.638;-115.438;2023-07-13T05:19:28;6.80;;;2.30;;
61104;SDS011;46987;32.638;-115.438;2023-07-13T05:21:57;8.30;;;2.53;;
61104;SDS011;46987;32.638;-115.438;2023-07-13T05:24:24;7.53;;;2.20;;
61104;SDS011;46987;32.638;-115.438;2023-07-13T05:26:51;5.95;;;1.95;;
61104;SDS011;46987;32.638;-115.438;2023-07-13T05:29:17;6.03;;;2.10;;
61104;SDS011;46987;32.638;-115.438;2023-07-13T05:31:44;6.85;;;1.92;;
61104;SDS011;46987;32.638;-115.438;2023-07-13T05:34:10;5.53;;;1.73;;
61104;SDS011;46987;32.638;-115.438;2023-07-13T05:36:37;4.38;;;1.67;;
61104;SDS011;46987;32.638;-115.438;2023-07-13T05:39:06;8.05;;;2.13;;
61104;SDS011;46987;32.638;-115.438;2023-07-13T05:41:34;5.05;;;1.80;;
61104;SDS011;46987;32.638;-115.438;2023-07-13T05:44:00;4.78;;;1.80;;
61104;SDS011;46987;32.638;-115.438;2023-07-13T05:46:27;10.10;;;2.15;;
61104;SDS011;46987;32.638;-115.438;2023-07-13T05:48:54;3.80;;;1.75;;
61104;SDS011;46987;32.638;-115.438;2023-07-13T05:51:21;6.15;;;1.73;;
61104;SDS011;46987;32.638;-115.438;2023-07-13T05:53:47;7.00;;;2.45;;
61104;SDS011;46987;32.638;-115.438;2023-07-13T05:56:24;8.57;;;2.10;;
61104;SDS011;46987;32.638;-115.438;2023-07-13T05:58:52;8.27;;;2.17;;
61104;SDS011;46987;32.638;-115.438;2023-07-13T06:01:19;4.80;;;1.90;;
61104;SDS011;46987;32.638;-115.438;2023-07-13T06:03:46;8.00;;;2.53;;
61104;SDS011;46987;32.638;-115.438;2023-07-13T06:06:13;5.03;;;1.90;;
61104;SDS011;46987;32.638;-115.438;2023-07-13T06:08:39;7.32;;;2.13;;
61104;SDS011;46987;32.638;-115.438;2023-07-13T06:11:07;7.28;;;2.75;;
61104;SDS011;46987;32.638;-115.438;2023-07-13T06:13:36;5.53;;;2.05;;
61104;SDS011;46987;32.638;-115.438;2023-07-13T06:16:02;5.10;;;2.05;;
61104;SDS011;46987;32.638;-115.438;2023-07-13T06:18:36;7.30;;;2.25;;
61104;SDS011;46987;32.638;-115.438;2023-07-13T06:21:06;5.25;;;2.22;;
61104;SDS011;46987;32.638;-115.438;2023-07-13T06:23:32;5.97;;;2.00;;
61104;SDS011;46987;32.638;-115.438;2023-07-13T06:25:59;6.68;;;2.50;;
61104;SDS011;46987;32.638;-115.438;2023-07-13T06:28:26;5.35;;;2.17;;
61104;SDS011;46987;32.638;-115.438;2023-07-13T06:30:54;8.15;;;2.40;;
61104;SDS011;46987;32.638;-115.438;2023-07-13T06:33:21;5.72;;;2.22;;
61104;SDS011;46987;32.638;-115.438;2023-07-13T06:35:48;5.22;;;2.33;;
61104;SDS011;46987;32.638;-115.438;2023-07-13T06:38:14;6.00;;;2.47;;
61104;SDS011;46987;32.638;-115.438;2023-07-13T06:40:41;5.82;;;2.20;;
61104;SDS011;46987;32.638;-115.438;2023-07-13T06:43:07;6.72;;;2.15;;
61104;SDS011;46987;32.638;-115.438;2023-07-13T06:45:36;7.07;;;2.40;;
61104;SDS011;46987;32.638;-115.438;2023-07-13T06:48:08;4.75;;;2.30;;
61104;SDS011;46987;32.638;-115.438;2023-07-13T06:50:34;5.30;;;2.42;;
61104;SDS011;46987;32.638;-115.438;2023-07-13T06:53:01;7.68;;;2.80;;
61104;SDS011;46987;32.638;-115.438;2023-07-13T06:55:27;9.95;;;2.97;;
61104;SDS011;46987;32.638;-115.438;2023-07-13T06:57:54;8.13;;;2.67;;
61104;SDS011;46987;32.638;-115.438;2023-07-13T07:00:21;7.22;;;2.65;;
61104;SDS011;46987;32.638;-115.438;2023-07-13T07:02:47;8.57;;;2.28;;
61104;SDS011;46987;32.638;-115.438;2023-07-13T07:05:15;5.63;;;2.50;;
61104;SDS011;46987;32.638;-115.438;2023-07-13T07:07:42;5.22;;;2.75;;
61104;SDS011;46987;32.638;-115.438;2023-07-13T07:10:09;10.18;;;2.72;;
61104;SDS011;46987;32.638;-115.438;2023-07-13T07:12:35;8.10;;;2.53;;
61104;SDS011;46987;32.638;-115.438;2023-07-13T07:15:02;6.03;;;2.78;;
61104;SDS011;46987;32.638;-115.438;2023-07-13T07:17:29;10.48;;;2.70;;
61104;SDS011;46987;32.638;-115.438;2023-07-13T07:19:55;4.68;;;2.58;;
61104;SDS011;46987;32.638;-115.438;2023-07-13T07:22:24;7.43;;;2.92;;
61104;SDS011;46987;32.638;-115.438;2023-07-13T07:24:53;6.72;;;2.60;;
61104;SDS011;46987;32.638;-115.438;2023-07-13T07:27:19;7.07;;;2.80;;
61104;SDS011;46987;32.638;-115.438;2023-07-13T07:29:46;7.93;;;2.97;;
61104;SDS011;46987;32.638;-115.438;2023-07-13T07:32:13;5.55;;;2.67;;
61104;SDS011;46987;32.638;-115.438;2023-07-13T07:34:39;6.45;;;3.00;;
61104;SDS011;46987;32.638;-115.438;2023-07-13T07:37:06;4.88;;;2.10;;
61104;SDS011;46987;32.638;-115.438;2023-07-13T07:39:34;5.20;;;2.72;;
61104;SDS011;46987;32.638;-115.438;2023-07-13T07:42:01;7.95;;;2.80;;
61104;SDS011;46987;32.638;-115.438;2023-07-13T07:44:28;4.85;;;2.70;;
61104;SDS011;46987;32.638;-115.438;2023-07-13T07:46:54;7.43;;;2.50;;
61104;SDS011;46987;32.638;-115.438;2023-07-13T07:49:21;5.50;;;2.38;;
61104;SDS011;46987;32.638;-115.438;2023-07-13T07:51:48;5.07;;;2.40;;
61104;SDS011;46987;32.638;-115.438;2023-07-13T07:54:15;7.03;;;2.97;;
61104;SDS011;46987;32.638;-115.438;2023-07-13T07:56:43;5.90;;;2.75;;
61104;SDS011;46987;32.638;-115.438;2023-07-13T07:59:10;6.72;;;3.00;;
61104;SDS011;46987;32.638;-115.438;2023-07-13T08:01:36;5.38;;;2.88;;
61104;SDS011;46987;32.638;-115.438;2023-07-13T08:04:03;11.43;;;3.50;;
61104;SDS011;46987;32.638;-115.438;2023-07-13T08:06:31;10.52;;;4.10;;
61104;SDS011;46987;32.638;-115.438;2023-07-13T08:08:58;10.95;;;5.20;;
61104;SDS011;46987;32.638;-115.438;2023-07-13T08:11:24;11.77;;;6.82;;
61104;SDS011;46987;32.638;-115.438;2023-07-13T08:13:53;18.73;;;8.88;;
61104;SDS011;46987;32.638;-115.438;2023-07-13T08:16:20;18.10;;;9.50;;
61104;SDS011;46987;32.638;-115.438;2023-07-13T08:18:47;14.30;;;9.30;;
61104;SDS011;46987;32.638;-115.438;2023-07-13T08:21:13;16.92;;;9.40;;
61104;SDS011;46987;32.638;-115.438;2023-07-13T08:23:40;19.88;;;10.27;;
61104;SDS011;46987;32.638;-115.438;2023-07-13T08:26:07;16.98;;;9.75;;
61104;SDS011;46987;32.638;-115.438;2023-07-13T08:28:35;22.55;;;10.13;;
61104;SDS011;46987;32.638;-115.438;2023-07-13T08:31:04;18.38;;;9.90;;
61104;SDS011;46987;32.638;-115.438;2023-07-13T08:33:31;19.05;;;9.52;;
61104;SDS011;46987;32.638;-115.438;2023-07-13T08:35:57;16.05;;;8.98;;
61104;SDS011;46987;32.638;-115.438;2023-07-13T08:38:24;20.42;;;8.68;;
61104;SDS011;46987;32.638;-115.438;2023-07-13T08:40:51;21.50;;;8.77;;
61104;SDS011;46987;32.638;-115.438;2023-07-13T08:43:19;19.40;;;7.95;;
61104;SDS011;46987;32.638;-115.438;2023-07-13T08:45:47;21.63;;;8.02;;
61104;SDS011;46987;32.638;-115.438;2023-07-13T08:48:17;17.70;;;6.88;;
61104;SDS011;46987;32.638;-115.438;2023-07-13T08:50:46;17.15;;;7.07;;
61104;SDS011;46987;32.638;-115.438;2023-07-13T08:53:13;17.60;;;6.63;;
61104;SDS011;46987;32.638;-115.438;2023-07-13T08:55:41;19.25;;;6.50;;
61104;SDS011;46987;32.638;-115.438;2023-07-13T08:58:09;14.73;;;6.00;;
61104;SDS011;46987;32.638;-115.438;2023-07-13T09:00:51;21.90;;;5.97;;
61104;SDS011;46987;32.638;-115.438;2023-07-13T09:03:22;17.80;;;5.55;;
61104;SDS011;46987;32.638;-115.438;2023-07-13T09:05:51;17.80;;;5.65;;
61104;SDS011;46987;32.638;-115.438;2023-07-13T09:08:25;15.32;;;6.25;;
61104;SDS011;46987;32.638;-115.438;2023-07-13T09:10:59;19.23;;;6.20;;
61104;SDS011;46987;32.638;-115.438;2023-07-13T09:13:27;13.93;;;5.43;;
61104;SDS011;46987;32.638;-115.438;2023-07-13T09:15:56;15.07;;;5.07;;
61104;SDS011;46987;32.638;-115.438;2023-07-13T09:18:28;14.43;;;5.25;;
61104;SDS011;46987;32.638;-115.438;2023-07-13T09:20:57;20.38;;;5.93;;
61104;SDS011;46987;32.638;-115.438;2023-07-13T09:23:26;12.10;;;5.07;;
61104;SDS011;46987;32.638;-115.438;2023-07-13T09:25:58;12.65;;;4.57;;
61104;SDS011;46987;32.638;-115.438;2023-07-13T09:28:27;12.55;;;4.68;;
61104;SDS011;46987;32.638;-115.438;2023-07-13T09:31:00;9.07;;;3.92;;
61104;SDS011;46987;32.638;-115.438;2023-07-13T09:33:29;14.25;;;3.95;;
61104;SDS011;46987;32.638;-115.438;2023-07-13T09:35:57;9.57;;;4.05;;
61104;SDS011;46987;32.638;-115.438;2023-07-13T09:38:25;9.98;;;3.83;;
61104;SDS011;46987;32.638;-115.438;2023-07-13T09:41:00;8.07;;;3.20;;
61104;SDS011;46987;32.638;-115.438;2023-07-13T09:43:29;6.88;;;3.63;;
61104;SDS011;46987;32.638;-115.438;2023-07-13T09:45:56;7.68;;;3.20;;
61104;SDS011;46987;32.638;-115.438;2023-07-13T09:48:22;7.50;;;2.88;;
61104;SDS011;46987;32.638;-115.438;2023-07-13T09:50:53;4.82;;;2.67;;
61104;SDS011;46987;32.638;-115.438;2023-07-13T09:53:20;5.55;;;2.83;;
61104;SDS011;46987;32.638;-115.438;2023-07-13T09:55:49;7.10;;;3.58;;
61104;SDS011;46987;32.638;-115.438;2023-07-13T09:58:16;7.38;;;3.00;;
61104;SDS011;46987;32.638;-115.438;2023-07-13T10:00:44;8.35;;;3.63;;
61104;SDS011;46987;32.638;-115.438;2023-07-13T10:03:20;8.50;;;3.60;;
61104;SDS011;46987;32.638;-115.438;2023-07-13T10:05:49;9.65;;;3.72;;
61104;SDS011;46987;32.638;-115.438;2023-07-13T10:08:22;10.40;;;4.00;;
61104;SDS011;46987;32.638;-115.438;2023-07-13T10:10:53;9.77;;;3.47;;
61104;SDS011;46987;32.638;-115.438;2023-07-13T10:13:24;8.55;;;3.40;;
61104;SDS011;46987;32.638;-115.438;2023-07-13T10:15:52;8.13;;;3.45;;
61104;SDS011;46987;32.638;-115.438;2023-07-13T10:18:19;8.10;;;3.13;;
61104;SDS011;46987;32.638;-115.438;2023-07-13T10:20:47;6.50;;;2.90;;
61104;SDS011;46987;32.638;-115.438;2023-07-13T10:23:15;7.05;;;3.33;;
61104;SDS011;46987;32.638;-115.438;2023-07-13T10:28:17;7.00;;;3.33;;
61104;SDS011;46987;32.638;-115.438;2023-07-13T10:30:46;8.50;;;3.05;;
61104;SDS011;46987;32.638;-115.438;2023-07-13T10:33:13;11.00;;;3.65;;
61104;SDS011;46987;32.638;-115.438;2023-07-13T10:35:40;7.80;;;3.40;;
61104;SDS011;46987;32.638;-115.438;2023-07-13T10:38:10;7.97;;;2.67;;
61104;SDS011;46987;32.638;-115.438;2023-07-13T10:40:38;11.02;;;3.17;;
61104;SDS011;46987;32.638;-115.438;2023-07-13T10:43:06;7.65;;;3.08;;
61104;SDS011;46987;32.638;-115.438;2023-07-13T10:45:37;8.05;;;2.90;;
61104;SDS011;46987;32.638;-115.438;2023-07-13T10:48:04;8.40;;;3.08;;
61104;SDS011;46987;32.638;-115.438;2023-07-13T10:50:31;10.38;;;3.30;;
61104;SDS011;46987;32.638;-115.438;2023-07-13T10:53:01;14.73;;;3.10;;
61104;SDS011;46987;32.638;-115.438;2023-07-13T10:55:35;9.35;;;3.00;;
61104;SDS011;46987;32.638;-115.438;2023-07-13T10:58:03;7.75;;;3.28;;
61104;SDS011;46987;32.638;-115.438;2023-07-13T11:00:46;7.00;;;2.22;;
61104;SDS011;46987;32.638;-115.438;2023-07-13T11:03:14;8.43;;;2.72;;
61104;SDS011;46987;32.638;-115.438;2023-07-13T11:05:41;7.40;;;2.90;;
61104;SDS011;46987;32.638;-115.438;2023-07-13T11:08:13;6.43;;;2.10;;
61104;SDS011;46987;32.638;-115.438;2023-07-13T11:10:47;6.28;;;2.88;;
61104;SDS011;46987;32.638;-115.438;2023-07-13T11:15:57;4.68;;;2.38;;
61104;SDS011;46987;32.638;-115.438;2023-07-13T11:18:24;6.97;;;2.15;;
61104;SDS011;46987;32.638;-115.438;2023-07-13T11:20:51;5.28;;;2.22;;
61104;SDS011;46987;32.638;-115.438;2023-07-13T11:23:28;4.60;;;2.17;;
61104;SDS011;46987;32.638;-115.438;2023-07-13T11:25:59;8.02;;;2.03;;
61104;SDS011;46987;32.638;-115.438;2023-07-13T11:28:30;8.77;;;2.75;;
61104;SDS011;46987;32.638;-115.438;2023-07-13T11:33:55;8.60;;;3.63;;
61104;SDS011;46987;32.638;-115.438;2023-07-13T11:36:23;8.20;;;3.70;;
61104;SDS011;46987;32.638;-115.438;2023-07-13T11:38:55;8.18;;;3.33;;
61104;SDS011;46987;32.638;-115.438;2023-07-13T11:41:25;7.45;;;2.45;;
61104;SDS011;46987;32.638;-115.438;2023-07-13T11:43:53;4.95;;;2.20;;
61104;SDS011;46987;32.638;-115.438;2023-07-13T11:46:20;7.03;;;2.40;;
61104;SDS011;46987;32.638;-115.438;2023-07-13T11:48:48;6.68;;;1.77;;
61104;SDS011;46987;32.638;-115.438;2023-07-13T11:51:19;4.80;;;1.35;;
61104;SDS011;46987;32.638;-115.438;2023-07-13T11:53:47;5.27;;;1.40;;
61104;SDS011;46987;32.638;-115.438;2023-07-13T11:56:14;5.35;;;1.48;;
61104;SDS011;46987;32.638;-115.438;2023-07-13T11:58:41;3.13;;;1.30;;
61104;SDS011;46987;32.638;-115.438;2023-07-13T12:01:12;5.03;;;1.20;;
61104;SDS011;46987;32.638;-115.438;2023-07-13T12:03:42;3.30;;;1.10;;
61104;SDS011;46987;32.638;-115.438;2023-07-13T12:06:19;2.55;;;0.98;;
61104;SDS011;46987;32.638;-115.438;2023-07-13T12:08:49;3.80;;;1.45;;
61104;SDS011;46987;32.638;-115.438;2023-07-13T12:11:16;7.43;;;1.63;;
61104;SDS011;46987;32.638;-115.438;2023-07-13T12:13:43;4.53;;;1.42;;
61104;SDS011;46987;32.638;-115.438;2023-07-13T12:16:11;4.20;;;1.30;;
61104;SDS011;46987;32.638;-115.438;2023-07-13T12:18:38;5.13;;;1.40;;
61104;SDS011;46987;32.638;-115.438;2023-07-13T12:21:10;5.63;;;1.42;;
61104;SDS011;46987;32.638;-115.438;2023-07-13T12:23:39;7.85;;;1.38;;
61104;SDS011;46987;32.638;-115.438;2023-07-13T12:26:09;6.43;;;1.15;;
61104;SDS011;46987;32.638;-115.438;2023-07-13T12:28:37;4.45;;;1.38;;
61104;SDS011;46987;32.638;-115.438;2023-07-13T12:31:04;13.10;;;2.58;;
61104;SDS011;46987;32.638;-115.438;2023-07-13T12:33:32;4.13;;;1.15;;
61104;SDS011;46987;32.638;-115.438;2023-07-13T12:35:59;5.97;;;1.30;;
61104;SDS011;46987;32.638;-115.438;2023-07-13T12:38:28;4.55;;;1.42;;
61104;SDS011;46987;32.638;-115.438;2023-07-13T12:40:54;6.40;;;1.50;;
61104;SDS011;46987;32.638;-115.438;2023-07-13T12:43:23;6.32;;;1.50;;
61104;SDS011;46987;32.638;-115.438;2023-07-13T12:45:56;6.50;;;1.65;;
61104;SDS011;46987;32.638;-115.438;2023-07-13T12:48:24;4.93;;;1.23;;
61104;SDS011;46987;32.638;-115.438;2023-07-13T12:50:51;5.32;;;1.30;;
61104;SDS011;46987;32.638;-115.438;2023-07-13T12:53:20;9.50;;;2.20;;
61104;SDS011;46987;32.638;-115.438;2023-07-13T12:55:47;14.20;;;3.55;;
61104;SDS011;46987;32.638;-115.438;2023-07-13T12:58:17;15.40;;;3.58;;
61104;SDS011;46987;32.638;-115.438;2023-07-13T13:00:49;18.48;;;4.10;;
61104;SDS011;46987;32.638;-115.438;2023-07-13T13:03:21;13.55;;;3.25;;
61104;SDS011;46987;32.638;-115.438;2023-07-13T13:05:49;10.63;;;2.33;;
61104;SDS011;46987;32.638;-115.438;2023-07-13T13:08:15;6.85;;;1.75;;
61104;SDS011;46987;32.638;-115.438;2023-07-13T13:10:42;5.68;;;1.40;;
61104;SDS011;46987;32.638;-115.438;2023-07-13T13:13:09;9.30;;;1.60;;
61104;SDS011;46987;32.638;-115.438;2023-07-13T13:15:35;7.25;;;1.67;;
61104;SDS011;46987;32.638;-115.438;2023-07-13T13:18:04;6.28;;;1.85;;
61104;SDS011;46987;32.638;-115.438;2023-07-13T13:20:35;7.95;;;2.20;;
61104;SDS011;46987;32.638;-115.438;2023-07-13T13:23:02;10.32;;;2.60;;
61104;SDS011;46987;32.638;-115.438;2023-07-13T13:25:28;8.05;;;2.08;;
61104;SDS011;46987;32.638;-115.438;2023-07-13T13:27:56;9.48;;;2.10;;
61104;SDS011;46987;32.638;-115.438;2023-07-13T13:30:23;11.07;;;2.28;;
61104;SDS011;46987;32.638;-115.438;2023-07-13T13:32:50;10.05;;;1.83;;
61104;SDS011;46987;32.638;-115.438;2023-07-13T13:35:19;9.75;;;2.17;;
61104;SDS011;46987;32.638;-115.438;2023-07-13T13:37:46;11.23;;;1.83;;
61104;SDS011;46987;32.638;-115.438;2023-07-13T13:40:18;9.43;;;2.00;;
61104;SDS011;46987;32.638;-115.438;2023-07-13T13:42:44;8.15;;;1.98;;
61104;SDS011;46987;32.638;-115.438;2023-07-13T13:45:11;11.65;;;2.28;;
61104;SDS011;46987;32.638;-115.438;2023-07-13T13:47:38;17.05;;;2.95;;
61104;SDS011;46987;32.638;-115.438;2023-07-13T13:50:12;13.63;;;3.17;;
61104;SDS011;46987;32.638;-115.438;2023-07-13T13:52:42;18.35;;;4.68;;
61104;SDS011;46987;32.638;-115.438;2023-07-13T13:55:12;15.65;;;6.13;;
61104;SDS011;46987;32.638;-115.438;2023-07-13T13:57:39;19.90;;;5.10;;
61104;SDS011;46987;32.638;-115.438;2023-07-13T14:00:07;16.00;;;6.28;;
61104;SDS011;46987;32.638;-115.438;2023-07-13T14:02:35;19.60;;;6.68;;
61104;SDS011;46987;32.638;-115.438;2023-07-13T14:05:02;18.90;;;6.55;;
61104;SDS011;46987;32.638;-115.438;2023-07-13T14:07:29;25.85;;;8.00;;
61104;SDS011;46987;32.638;-115.438;2023-07-13T14:09:58;24.35;;;7.97;;
61104;SDS011;46987;32.638;-115.438;2023-07-13T14:12:26;23.88;;;9.25;;
61104;SDS011;46987;32.638;-115.438;2023-07-13T14:14:54;23.80;;;8.48;;
61104;SDS011;46987;32.638;-115.438;2023-07-13T14:17:22;27.80;;;9.68;;
61104;SDS011;46987;32.638;-115.438;2023-07-13T14:19:49;24.23;;;10.88;;
61104;SDS011;46987;32.638;-115.438;2023-07-13T14:22:23;33.15;;;10.68;;